createdAt,value
2019-05-06T00:00:13.961Z,8.13
2019-05-06T00:02:43.577Z,8.14
2019-05-06T00:05:14.282Z,8.15
2019-05-06T00:07:44.535Z,8.23
2019-05-06T00:10:25.112Z,8.24
2019-05-06T00:12:54.502Z,8.29
2019-05-06T00:15:23.525Z,8.30
2019-05-06T00:17:53.924Z,8.35
2019-05-06T00:20:24.336Z,8.37
2019-05-06T00:22:54.669Z,8.39
2019-05-06T00:25:40.909Z,8.38
2019-05-06T00:28:24.423Z,8.35
2019-05-06T00:31:08.603Z,8.37
2019-05-06T00:33:24.802Z,8.40
2019-05-06T00:35:53.867Z,8.42
2019-05-06T00:38:24.478Z,8.44
2019-05-06T00:40:59.889Z,8.48
2019-05-06T00:43:28.356Z,8.48
2019-05-06T00:45:56.732Z,8.48
2019-05-06T00:48:25.176Z,8.51
2019-05-06T00:50:53.737Z,8.56
2019-05-06T00:53:23.980Z,8.53
2019-05-06T00:55:53.773Z,8.55
2019-05-06T00:58:23.905Z,8.53
2019-05-06T01:00:53.884Z,8.53
2019-05-06T01:03:23.917Z,8.52
2019-05-06T01:05:54.173Z,8.51
2019-05-06T01:08:24.063Z,8.50
2019-05-06T01:10:54.436Z,8.51
2019-05-06T01:13:27.252Z,8.52
2019-05-06T01:15:55.704Z,8.54
2019-05-06T01:18:24.528Z,8.53
2019-05-06T01:20:54.850Z,8.56
2019-05-06T01:23:23.642Z,8.58
2019-05-06T01:25:52.091Z,8.56
2019-05-06T01:28:20.863Z,8.56
2019-05-06T01:30:49.269Z,8.56
2019-05-06T01:33:17.923Z,8.56
2019-05-06T01:35:46.638Z,8.54
2019-05-06T01:38:25.637Z,8.52
2019-05-06T01:41:13.640Z,8.53
2019-05-06T01:43:43.948Z,8.52
2019-05-06T01:46:14.016Z,8.52
2019-05-06T01:48:48.489Z,8.52
2019-05-06T01:51:18.503Z,8.46
2019-05-06T01:53:47.357Z,8.47
2019-05-06T01:56:15.898Z,8.44
2019-05-06T01:58:44.398Z,8.43
2019-05-06T02:01:14.767Z,8.40
2019-05-06T02:03:44.359Z,8.35
2019-05-06T02:06:14.074Z,8.33
2019-05-06T02:08:44.818Z,8.30
2019-05-06T02:11:14.895Z,8.27
2019-05-06T02:13:44.271Z,8.28
2019-05-06T02:16:14.804Z,8.21
2019-05-06T02:18:44.881Z,8.11
2019-05-06T02:21:30.473Z,8.07
2019-05-06T02:24:13.515Z,8.07
2019-05-06T02:26:43.625Z,8.08
2019-05-06T02:29:29.099Z,8.04
2019-05-06T02:32:24.835Z,8.00
2019-05-06T02:34:47.431Z,7.95
2019-05-06T02:37:34.954Z,7.86
2019-05-06T02:40:05.433Z,7.85
2019-05-06T02:42:34.095Z,7.77
2019-05-06T02:45:03.983Z,7.75
2019-05-06T02:47:42.731Z,7.75
2019-05-06T02:50:13.239Z,7.72
2019-05-06T02:52:44.128Z,7.64
2019-05-06T02:55:13.106Z,7.60
2019-05-06T02:57:44.012Z,7.60
2019-05-06T03:00:16.630Z,7.55
2019-05-06T03:02:48.119Z,7.52
2019-05-06T03:05:15.178Z,7.50
2019-05-06T03:07:43.836Z,7.47
2019-05-06T03:10:16.328Z,7.42
2019-05-06T03:12:44.841Z,7.40
2019-05-06T03:15:16.598Z,7.35
2019-05-06T03:17:43.771Z,7.34
2019-05-06T03:20:15.699Z,7.27
2019-05-06T03:22:54.717Z,7.22
2019-05-06T03:25:25.102Z,7.16
2019-05-06T03:27:53.490Z,7.10
2019-05-06T03:30:25.652Z,7.06
2019-05-06T03:33:27.672Z,6.97
2019-05-06T03:35:40.431Z,6.91
2019-05-06T03:37:53.428Z,6.94
2019-05-06T03:40:23.063Z,7.01
2019-05-06T03:42:53.968Z,7.00
2019-05-06T03:45:26.674Z,6.95
2019-05-06T03:47:56.698Z,6.77
2019-05-06T03:50:25.093Z,6.76
2019-05-06T03:52:56.460Z,6.75
2019-05-06T03:55:24.035Z,6.62
2019-05-06T03:57:54.059Z,6.60
2019-05-06T04:00:23.751Z,6.40
2019-05-06T04:02:53.568Z,6.44
2019-05-06T04:05:23.781Z,6.27
2019-05-06T04:07:53.884Z,6.27
2019-05-06T04:10:22.992Z,6.13
2019-05-06T04:12:53.431Z,6.20
2019-05-06T04:15:22.977Z,6.19
2019-05-06T04:17:54.359Z,6.24
2019-05-06T04:20:40.046Z,6.31
2019-05-06T04:23:16.617Z,6.36
2019-05-06T04:26:03.599Z,6.39
2019-05-06T04:28:34.308Z,6.43
2019-05-06T04:31:03.077Z,6.43
2019-05-06T04:33:33.187Z,6.48
2019-05-06T04:36:03.584Z,6.53
2019-05-06T04:38:33.693Z,6.40
2019-05-06T04:41:02.914Z,6.42
2019-05-06T04:43:33.626Z,6.31
2019-05-06T04:46:03.177Z,6.22
2019-05-06T04:48:33.028Z,6.22
2019-05-06T04:51:03.324Z,6.16
2019-05-06T04:53:33.694Z,6.30
2019-05-06T04:56:03.861Z,6.24
2019-05-06T04:58:33.539Z,6.34
2019-05-06T05:01:04.033Z,6.44
2019-05-06T05:03:33.686Z,6.49
2019-05-06T05:06:05.613Z,6.51
2019-05-06T05:08:39.293Z,6.44
2019-05-06T05:11:12.801Z,6.47
2019-05-06T05:13:53.241Z,6.37
2019-05-06T05:16:33.145Z,6.42
2019-05-06T05:19:06.123Z,6.52
2019-05-06T05:21:34.594Z,6.67
2019-05-06T05:24:03.040Z,6.80
2019-05-06T05:26:32.260Z,6.90
2019-05-06T05:29:02.857Z,6.98
2019-05-06T05:31:33.121Z,7.00
2019-05-06T05:34:02.168Z,7.14
2019-05-06T05:36:32.757Z,7.19
2019-05-06T05:39:03.224Z,7.29
2019-05-06T05:41:33.124Z,7.37
2019-05-06T05:44:06.869Z,7.49
2019-05-06T05:46:35.334Z,7.50
2019-05-06T05:49:08.164Z,7.59
2019-05-06T05:51:36.691Z,7.56
2019-05-06T05:54:05.131Z,7.43
2019-05-06T05:56:33.610Z,7.01
2019-05-06T05:59:03.335Z,7.09
2019-05-06T06:01:32.778Z,7.28
2019-05-06T06:04:03.157Z,7.21
2019-05-06T06:06:33.139Z,7.22
2019-05-06T06:09:03.050Z,7.39
2019-05-06T06:11:39.671Z,7.55
2019-05-06T06:14:26.318Z,7.85
2019-05-06T06:17:13.013Z,8.22
2019-05-06T06:19:54.338Z,8.50
2019-05-06T06:22:24.538Z,8.70
2019-05-06T06:24:53.454Z,9.00
2019-05-06T06:27:22.404Z,9.11
2019-05-06T06:29:52.759Z,9.81
2019-05-06T06:32:23.332Z,10.21
2019-05-06T06:37:43.125Z,11.41
2019-05-06T06:40:13.494Z,11.24
2019-05-06T06:42:42.729Z,11.39
2019-05-06T06:45:12.279Z,11.97
2019-05-06T06:47:42.543Z,12.49
2019-05-06T06:50:12.552Z,13.08
2019-05-06T06:52:42.178Z,13.30
2019-05-06T06:55:12.948Z,12.51
2019-05-06T06:57:52.380Z,12.16
2019-05-06T07:00:22.444Z,12.55
2019-05-06T07:02:52.610Z,12.87
2019-05-06T07:05:28.289Z,13.13
2019-05-06T07:07:55.768Z,13.18
2019-05-06T07:10:43.023Z,12.09
2019-05-06T07:13:13.285Z,11.89
2019-05-06T07:15:42.638Z,11.86
2019-05-06T07:18:13.526Z,11.35
2019-05-06T07:20:43.414Z,10.88
2019-05-06T07:23:24.828Z,11.11
2019-05-06T07:25:54.436Z,11.30
2019-05-06T07:28:23.924Z,11.41
2019-05-06T07:30:53.017Z,12.14
2019-05-06T07:33:22.915Z,12.20
2019-05-06T07:35:53.077Z,11.67
2019-05-06T07:38:23.051Z,11.91
2019-05-06T07:41:04.635Z,12.05
2019-05-06T07:43:42.047Z,12.36
2019-05-06T07:46:23.535Z,11.44
2019-05-06T07:48:52.024Z,11.07
2019-05-06T07:51:20.373Z,10.53
2019-05-06T07:53:48.783Z,10.69
2019-05-06T07:56:17.195Z,10.65
2019-05-06T07:58:45.756Z,11.02
2019-05-06T08:01:14.297Z,11.16
2019-05-06T08:03:43.028Z,11.20
2019-05-06T08:06:13.176Z,10.94
2019-05-06T08:08:43.289Z,10.53
2019-05-06T08:11:12.441Z,11.70
2019-05-06T08:13:43.186Z,12.27
2019-05-06T08:16:13.079Z,11.48
2019-05-06T08:18:42.521Z,12.23
2019-05-06T08:21:16.115Z,12.58
2019-05-06T08:23:46.250Z,12.71
2019-05-06T08:26:17.576Z,13.12
2019-05-06T08:28:45.145Z,13.18
2019-05-06T08:31:14.182Z,13.26
2019-05-06T08:33:43.215Z,12.55
2019-05-06T08:36:15.019Z,12.96
2019-05-06T08:38:56.149Z,13.45
2019-05-06T08:41:25.582Z,14.61
2019-05-06T08:43:54.053Z,13.93
2019-05-06T08:46:23.464Z,13.11
2019-05-06T08:48:52.755Z,12.09
2019-05-06T08:51:25.964Z,11.61
2019-05-06T08:53:58.949Z,11.50
2019-05-06T08:56:27.351Z,11.25
2019-05-06T08:58:56.125Z,11.31
2019-05-06T09:01:42.662Z,11.35
2019-05-06T09:04:13.670Z,11.29
2019-05-06T09:06:43.159Z,11.09
2019-05-06T09:09:13.052Z,11.75
2019-05-06T09:11:43.166Z,12.89
2019-05-06T09:14:13.700Z,12.71
2019-05-06T09:16:43.770Z,12.53
2019-05-06T09:19:12.924Z,11.97
2019-05-06T09:21:45.712Z,11.72
2019-05-06T09:24:12.865Z,11.96
2019-05-06T09:26:52.359Z,12.86
2019-05-06T09:29:28.208Z,12.23
2019-05-06T09:32:04.337Z,12.14
2019-05-06T09:34:34.785Z,12.23
2019-05-06T09:37:16.486Z,11.50
2019-05-06T09:39:46.093Z,11.75
2019-05-06T09:42:15.038Z,12.10
2019-05-06T09:44:45.146Z,12.76
2019-05-06T09:47:18.591Z,13.60
2019-05-06T09:49:48.794Z,12.90
2019-05-06T09:52:17.607Z,12.60
2019-05-06T09:55:04.307Z,12.05
2019-05-06T09:57:52.215Z,12.08
2019-05-06T10:00:23.591Z,12.88
2019-05-06T10:02:52.693Z,13.94
2019-05-06T10:05:21.443Z,14.26
2019-05-06T10:07:49.988Z,15.28
2019-05-06T10:10:18.432Z,15.36
2019-05-06T10:12:47.126Z,14.57
2019-05-06T10:15:15.999Z,12.59
2019-05-06T10:17:44.447Z,12.34
2019-05-06T10:20:12.902Z,11.78
2019-05-06T10:22:43.036Z,11.50
2019-05-06T10:25:13.382Z,11.82
2019-05-06T10:27:43.507Z,12.00
2019-05-06T10:30:13.651Z,11.30
2019-05-06T10:32:49.349Z,11.17
2019-05-06T10:35:19.055Z,11.14
2019-05-06T10:38:03.040Z,11.26
2019-05-06T10:40:59.680Z,10.87
2019-05-06T10:43:43.140Z,11.24
2019-05-06T10:46:13.195Z,11.76
2019-05-06T10:48:42.411Z,12.31
2019-05-06T10:51:14.234Z,13.84
2019-05-06T10:53:42.807Z,14.78
2019-05-06T10:56:28.011Z,14.65
2019-05-06T10:58:58.177Z,13.79
2019-05-06T11:01:28.262Z,13.43
2019-05-06T11:03:57.357Z,13.16
2019-05-06T11:06:25.731Z,12.80
2019-05-06T11:08:54.197Z,12.80
2019-05-06T11:11:32.617Z,13.05
2019-05-06T11:13:53.253Z,13.85
2019-05-06T11:16:23.648Z,14.56
2019-05-06T11:18:53.498Z,14.16
2019-05-06T11:21:22.641Z,13.54
2019-05-06T11:23:52.719Z,13.95
2019-05-06T11:26:23.566Z,13.66
2019-05-06T11:28:56.206Z,12.92
2019-05-06T11:31:34.774Z,12.56
2019-05-06T11:34:23.241Z,12.76
2019-05-06T11:36:53.703Z,12.18
2019-05-06T11:39:23.357Z,11.78
2019-05-06T11:42:06.271Z,12.14
2019-05-06T11:44:24.003Z,13.52
2019-05-06T11:46:52.527Z,14.51
2019-05-06T11:49:23.274Z,15.93
2019-05-06T11:51:51.526Z,17.52
2019-05-06T11:54:23.556Z,19.83
2019-05-06T11:56:55.117Z,22.11
2019-05-06T11:59:22.617Z,21.42
2019-05-06T12:01:53.592Z,18.83
2019-05-06T12:04:23.021Z,21.83
2019-05-06T12:06:52.603Z,21.40
2019-05-06T12:09:22.384Z,18.57
2019-05-06T12:11:52.886Z,18.45
2019-05-06T12:14:22.688Z,17.60
2019-05-06T12:16:54.845Z,15.96
2019-05-06T12:19:22.528Z,15.78
2019-05-06T12:21:51.252Z,15.41
2019-05-06T12:24:19.795Z,13.97
2019-05-06T12:26:48.174Z,14.65
2019-05-06T12:29:16.557Z,14.64
2019-05-06T12:31:46.581Z,14.93
2019-05-06T12:34:14.960Z,14.80
2019-05-06T12:36:43.695Z,16.20
2019-05-06T12:39:18.477Z,15.91
2019-05-06T12:41:57.418Z,16.65
2019-05-06T12:44:25.783Z,17.24
2019-05-06T12:46:59.482Z,17.47
2019-05-06T12:49:26.075Z,17.32
2019-05-06T12:51:54.524Z,15.48
2019-05-06T12:54:22.997Z,14.55
2019-05-06T12:56:52.795Z,14.17
2019-05-06T12:59:22.316Z,14.30
2019-05-06T13:01:53.768Z,13.02
2019-05-06T13:04:44.519Z,13.29
2019-05-06T13:06:52.171Z,13.20
2019-05-06T13:09:22.544Z,12.92
2019-05-06T13:11:52.376Z,12.82
2019-05-06T13:14:22.363Z,13.31
2019-05-06T13:16:53.216Z,14.45
2019-05-06T13:19:22.891Z,16.19
2019-05-06T13:21:51.473Z,18.67
2019-05-06T13:24:19.953Z,20.93
2019-05-06T13:26:49.305Z,22.04
2019-05-06T13:29:22.679Z,21.40
2019-05-06T13:31:53.039Z,22.30
2019-05-06T13:34:23.455Z,22.66
2019-05-06T13:36:53.270Z,20.30
2019-05-06T13:39:23.713Z,21.57
2019-05-06T13:41:52.875Z,22.64
2019-05-06T13:44:22.747Z,23.96
2019-05-06T13:46:53.268Z,22.34
2019-05-06T13:49:26.298Z,21.17
2019-05-06T13:52:04.388Z,19.95
2019-05-06T13:54:32.786Z,16.60
2019-05-06T13:57:02.960Z,16.05
2019-05-06T13:59:34.762Z,17.41
2019-05-06T14:02:07.528Z,17.97
2019-05-06T14:04:36.327Z,16.44
2019-05-06T14:07:07.453Z,15.60
2019-05-06T14:09:39.918Z,16.12
2019-05-06T14:12:05.201Z,14.35
2019-05-06T14:14:33.722Z,15.70
2019-05-06T14:17:02.558Z,17.24
2019-05-06T14:19:33.220Z,18.05
2019-05-06T14:22:03.033Z,18.16
2019-05-06T14:24:32.780Z,19.98
2019-05-06T14:27:08.801Z,19.45
2019-05-06T14:29:44.620Z,20.37
2019-05-06T14:32:14.888Z,19.60
2019-05-06T14:34:43.609Z,18.86
2019-05-06T14:37:12.208Z,17.24
2019-05-06T14:39:53.290Z,16.38
2019-05-06T14:42:12.890Z,15.68
2019-05-06T14:44:43.102Z,14.48
2019-05-06T14:47:13.154Z,14.04
2019-05-06T14:49:43.155Z,14.20
2019-05-06T14:52:13.245Z,13.45
2019-05-06T14:54:49.472Z,13.25
2019-05-06T14:57:18.823Z,13.13
2019-05-06T14:59:50.835Z,12.77
2019-05-06T15:02:19.511Z,12.93
2019-05-06T15:04:47.940Z,12.77
2019-05-06T15:07:16.452Z,12.88
2019-05-06T15:09:55.879Z,12.83
2019-05-06T15:12:15.025Z,12.72
2019-05-06T15:14:43.466Z,12.89
2019-05-06T15:17:14.228Z,13.06
2019-05-06T15:19:42.899Z,13.31
2019-05-06T15:22:13.008Z,12.90
2019-05-06T15:24:42.656Z,12.82
2019-05-06T15:27:11.962Z,12.63
2019-05-06T15:29:42.303Z,12.39
2019-05-06T15:32:24.050Z,12.27
2019-05-06T15:35:09.503Z,12.19
2019-05-06T15:37:42.691Z,12.18
2019-05-06T15:40:12.167Z,12.07
2019-05-06T15:42:42.489Z,11.80
2019-05-06T15:45:12.601Z,11.79
2019-05-06T15:47:42.626Z,11.73
2019-05-06T15:50:12.767Z,11.86
2019-05-06T15:52:43.490Z,11.85
2019-05-06T15:55:12.229Z,11.66
2019-05-06T15:57:43.280Z,11.39
2019-05-06T16:00:13.041Z,11.36
2019-05-06T16:02:42.031Z,11.45
2019-05-06T16:05:13.903Z,11.45
2019-05-06T16:07:43.156Z,11.47
2019-05-06T16:10:13.293Z,11.48
2019-05-06T16:12:41.833Z,11.40
2019-05-06T16:15:12.985Z,11.47
2019-05-06T16:17:42.663Z,11.56
2019-05-06T16:20:12.986Z,11.52
2019-05-06T16:22:44.544Z,11.39
2019-05-06T16:25:14.533Z,11.52
2019-05-06T16:27:44.185Z,11.53
2019-05-06T16:30:14.992Z,11.78
2019-05-06T16:32:44.424Z,12.07
2019-05-06T16:35:14.365Z,12.07
2019-05-06T16:37:42.897Z,12.08
2019-05-06T16:40:12.440Z,12.15
2019-05-06T16:42:42.587Z,12.07
2019-05-06T16:45:12.706Z,12.03
2019-05-06T16:47:44.706Z,11.98
2019-05-06T16:50:19.044Z,11.86
2019-05-06T16:52:47.705Z,11.74
2019-05-06T16:55:24.518Z,11.75
2019-05-06T16:57:54.858Z,11.60
2019-05-06T17:00:25.328Z,11.52
2019-05-06T17:03:04.508Z,11.54
2019-05-06T17:05:34.678Z,11.58
2019-05-06T17:08:03.219Z,11.57
2019-05-06T17:10:32.677Z,11.39
2019-05-06T17:13:02.933Z,11.38
2019-05-06T17:15:32.608Z,11.36
2019-05-06T17:18:03.168Z,11.14
2019-05-06T17:20:32.679Z,11.10
2019-05-06T17:23:02.937Z,11.19
2019-05-06T17:25:32.913Z,11.20
2019-05-06T17:28:03.487Z,11.26
2019-05-06T17:30:43.075Z,11.31
2019-05-06T17:33:29.637Z,11.30
2019-05-06T17:35:58.203Z,11.36
2019-05-06T17:38:28.262Z,11.28
2019-05-06T17:40:56.720Z,11.29
2019-05-06T17:43:25.173Z,11.07
2019-05-06T17:46:01.882Z,11.07
2019-05-06T17:48:30.016Z,10.83
2019-05-06T17:51:16.615Z,10.99
2019-05-06T17:53:52.062Z,10.97
2019-05-06T17:56:22.085Z,10.82
2019-05-06T17:58:50.386Z,10.99
2019-05-06T18:01:35.734Z,10.70
2019-05-06T18:04:04.692Z,10.80
2019-05-06T18:06:33.583Z,10.94
2019-05-06T18:09:02.639Z,11.02
2019-05-06T18:11:33.272Z,11.05
2019-05-06T18:14:03.779Z,10.96
2019-05-06T18:16:33.142Z,10.73
2019-05-06T18:19:03.082Z,10.89
2019-05-06T18:21:31.865Z,10.70
2019-05-06T18:24:00.226Z,10.75
2019-05-06T18:26:29.168Z,10.73
2019-05-06T18:28:58.541Z,10.79
2019-05-06T18:31:27.128Z,10.60
2019-05-06T18:33:55.500Z,10.56
2019-05-06T18:36:24.046Z,10.41
2019-05-06T18:38:52.760Z,10.20
2019-05-06T18:41:23.392Z,10.27
2019-05-06T18:43:53.407Z,10.34
2019-05-06T18:46:21.596Z,10.35
2019-05-06T18:48:52.355Z,10.06
2019-05-06T18:51:22.375Z,10.05
2019-05-06T18:53:52.399Z,10.03
2019-05-06T18:56:22.378Z,10.16
2019-05-06T18:58:53.071Z,10.21
2019-05-06T19:01:23.197Z,9.98
2019-05-06T19:04:03.389Z,9.84
2019-05-06T19:06:32.698Z,9.60
2019-05-06T19:09:19.265Z,9.47
2019-05-06T19:11:48.128Z,9.14
2019-05-06T19:14:16.551Z,9.20
2019-05-06T19:16:49.749Z,9.31
2019-05-06T19:19:15.108Z,9.48
2019-05-06T19:21:43.807Z,9.53
2019-05-06T19:24:12.401Z,9.34
2019-05-06T19:26:42.790Z,9.33
2019-05-06T19:29:12.249Z,9.34
2019-05-06T19:31:44.765Z,9.21
2019-05-06T19:34:12.956Z,9.44
2019-05-06T19:36:42.215Z,9.41
2019-05-06T19:39:12.661Z,9.35
2019-05-06T19:41:41.019Z,9.28
2019-05-06T19:44:09.531Z,9.16
2019-05-06T19:46:37.994Z,8.87
2019-05-06T19:49:06.490Z,8.97
2019-05-06T19:51:35.320Z,8.99
2019-05-06T19:54:03.759Z,9.01
2019-05-06T19:56:32.243Z,9.14
2019-05-06T19:59:02.086Z,8.90
2019-05-06T20:01:32.351Z,8.85
2019-05-06T20:04:02.582Z,8.88
2019-05-06T20:06:41.754Z,8.89
2019-05-06T20:09:27.514Z,8.78
2019-05-06T20:11:57.659Z,8.78
2019-05-06T20:14:26.377Z,8.91
2019-05-06T20:16:54.730Z,8.85
2019-05-06T20:19:30.716Z,8.74
2019-05-06T20:21:53.287Z,8.66
2019-05-06T20:24:22.493Z,8.60
2019-05-06T20:26:52.726Z,8.50
2019-05-06T20:29:22.402Z,8.53
2019-05-06T20:31:53.319Z,8.75
2019-05-06T20:34:22.381Z,8.88
2019-05-06T20:36:52.863Z,8.77
2019-05-06T20:39:23.050Z,8.70
2019-05-06T20:41:51.419Z,8.84
2019-05-06T20:44:19.766Z,8.84
2019-05-06T20:46:48.527Z,8.84
2019-05-06T20:49:16.924Z,8.76
2019-05-06T20:51:45.360Z,8.89
2019-05-06T20:54:13.750Z,8.93
2019-05-06T20:56:42.294Z,9.05
2019-05-06T20:59:12.122Z,8.99
2019-05-06T21:01:42.500Z,8.75
2019-05-06T21:04:13.121Z,8.69
2019-05-06T21:06:42.599Z,8.78
2019-05-06T21:09:12.441Z,8.88
2019-05-06T21:11:42.156Z,8.71
2019-05-06T21:14:13.039Z,8.80
2019-05-06T21:16:42.268Z,8.82
2019-05-06T21:19:12.622Z,8.78
2019-05-06T21:21:42.987Z,8.69
2019-05-06T21:24:13.027Z,8.67
2019-05-06T21:26:42.875Z,8.63
2019-05-06T21:29:12.763Z,8.55
2019-05-06T21:31:42.245Z,8.49
2019-05-06T21:34:12.869Z,8.62
2019-05-06T21:36:42.255Z,8.60
2019-05-06T21:39:12.919Z,8.46
2019-05-06T21:41:42.745Z,8.51
2019-05-06T21:44:13.254Z,8.54
2019-05-06T21:46:42.966Z,8.44
2019-05-06T21:49:12.252Z,8.55
2019-05-06T21:51:42.564Z,8.60
2019-05-06T21:54:12.551Z,8.57
2019-05-06T21:56:42.442Z,8.48
2019-05-06T21:59:12.878Z,8.53
2019-05-06T22:01:42.909Z,8.52
2019-05-06T22:04:12.839Z,8.35
2019-05-06T22:06:42.766Z,8.29
2019-05-06T22:09:12.585Z,8.32
2019-05-06T22:11:42.330Z,8.15
2019-05-06T22:14:12.249Z,8.33
2019-05-06T22:16:41.007Z,8.28
2019-05-06T22:19:11.909Z,8.13
2019-05-06T22:21:42.577Z,8.23
2019-05-06T22:24:12.218Z,8.13
2019-05-06T22:26:43.202Z,8.26
2019-05-06T22:29:12.773Z,8.24
2019-05-06T22:31:42.314Z,8.24
2019-05-06T22:34:10.837Z,8.21
2019-05-06T22:36:39.182Z,8.19
2019-05-06T22:39:07.725Z,8.13
2019-05-06T22:41:36.123Z,8.16
2019-05-06T22:44:13.105Z,8.17
2019-05-06T22:46:34.739Z,8.16
2019-05-06T22:49:03.757Z,8.23
2019-05-06T22:51:32.529Z,8.25
2019-05-06T22:54:03.182Z,8.24
2019-05-06T22:56:32.506Z,8.18
2019-05-06T22:59:03.346Z,8.08
2019-05-06T23:01:49.659Z,8.04
2019-05-06T23:04:21.701Z,8.02
2019-05-06T23:06:50.177Z,8.19
2019-05-06T23:09:18.953Z,8.16
2019-05-06T23:11:47.551Z,8.22
2019-05-06T23:14:28.071Z,8.29
2019-05-06T23:16:46.454Z,8.18
2019-05-06T23:19:15.244Z,8.13
2019-05-06T23:21:43.722Z,8.08
2019-05-06T23:24:13.158Z,8.13
2019-05-06T23:26:41.699Z,8.08
2019-05-06T23:29:12.772Z,8.01
2019-05-06T23:31:42.463Z,8.13
2019-05-06T23:34:12.535Z,8.11
2019-05-06T23:36:59.215Z,8.11
2019-05-06T23:40:05.809Z,8.07
2019-05-06T23:43:12.622Z,8.15
2019-05-06T23:46:17.519Z,8.22
2019-05-06T23:49:22.729Z,8.22
2019-05-06T23:52:28.083Z,8.32
2019-05-06T23:55:32.909Z,8.11
2019-05-06T23:58:00.278Z,8.17
